createdAt,value
2023-06-09T00:01:28.459Z,98661.50
2023-06-09T00:03:58.020Z,98660.91
2023-06-09T00:06:28.317Z,98671.94
2023-06-09T00:08:58.368Z,98659.59
2023-06-09T00:11:27.436Z,98662.13
2023-06-09T00:13:56.053Z,98665.84
2023-06-09T00:16:25.357Z,98661.88
2023-06-09T00:18:54.390Z,98658.72
2023-06-09T00:21:26.406Z,98663.69
2023-06-09T00:23:57.230Z,98669.97
2023-06-09T00:26:26.413Z,98660.31
2023-06-09T00:28:55.103Z,98660.75
2023-06-09T00:31:23.822Z,98661.84
2023-06-09T00:33:52.571Z,98669.50
2023-06-09T00:36:21.376Z,98674.03
2023-06-09T00:38:50.117Z,98674.00
2023-06-09T00:41:20.208Z,98660.19
2023-06-09T00:43:49.720Z,98657.81
2023-06-09T00:46:18.489Z,98655.22
2023-06-09T00:48:47.275Z,98657.03
2023-06-09T00:51:16.378Z,98658.53
2023-06-09T00:53:45.241Z,98660.13
2023-06-09T00:56:14.490Z,98654.84
2023-06-09T00:58:44.600Z,98647.16
2023-06-09T01:01:13.374Z,98652.13
2023-06-09T01:03:42.255Z,98653.66
2023-06-09T01:06:14.330Z,98659.63
2023-06-09T01:08:49.434Z,98655.16
2023-06-09T01:11:23.753Z,98668.06
2023-06-09T01:13:58.269Z,98658.84
2023-06-09T01:16:35.530Z,98667.75
2023-06-09T01:19:12.611Z,98656.75
2023-06-09T01:21:45.667Z,98655.66
2023-06-09T01:24:20.283Z,98656.41
2023-06-09T01:26:52.051Z,98658.47
2023-06-09T01:29:21.593Z,98660.09
2023-06-09T01:31:51.048Z,98661.06
2023-06-09T01:34:19.999Z,98649.72
2023-06-09T01:36:48.956Z,98661.75
2023-06-09T01:39:17.617Z,98660.19
2023-06-09T01:41:46.360Z,98661.88
2023-06-09T01:44:16.403Z,98658.66
2023-06-09T01:46:45.182Z,98657.88
2023-06-09T01:49:18.295Z,98656.03
2023-06-09T01:51:54.225Z,98655.06
2023-06-09T01:54:26.422Z,98656.00
2023-06-09T01:56:59.839Z,98658.25
2023-06-09T01:59:34.060Z,98654.31
2023-06-09T02:02:03.988Z,98659.13
2023-06-09T02:04:34.178Z,98649.00
2023-06-09T02:07:04.522Z,98651.03
2023-06-09T02:09:34.818Z,98651.13
2023-06-09T02:12:04.294Z,98646.16
2023-06-09T02:14:35.249Z,98659.88
2023-06-09T02:17:04.809Z,98651.63
2023-06-09T02:19:38.491Z,98648.75
2023-06-09T02:22:08.083Z,98652.91
2023-06-09T02:24:36.969Z,98653.38
2023-06-09T02:27:06.567Z,98648.94
2023-06-09T02:29:36.988Z,98649.94
2023-06-09T02:32:06.769Z,98653.72
2023-06-09T02:34:35.425Z,98656.50
2023-06-09T02:37:08.250Z,98647.06
2023-06-09T02:39:36.891Z,98646.28
2023-06-09T02:42:06.251Z,98652.72
2023-06-09T02:44:38.597Z,98649.22
2023-06-09T02:47:07.954Z,98653.66
2023-06-09T02:49:36.576Z,98645.00
2023-06-09T02:52:05.958Z,98650.81
2023-06-09T02:54:34.773Z,98646.78
2023-06-09T02:57:04.073Z,98649.72
2023-06-09T02:59:32.774Z,98651.50
2023-06-09T03:02:02.955Z,98643.03
2023-06-09T03:04:31.720Z,98643.03
2023-06-09T03:07:00.586Z,98644.13
2023-06-09T03:09:29.274Z,98641.44
2023-06-09T03:11:58.011Z,98651.13
2023-06-09T03:14:26.689Z,98644.53
2023-06-09T03:16:55.688Z,98655.25
2023-06-09T03:19:25.916Z,98656.03
2023-06-09T03:21:54.778Z,98655.00
2023-06-09T03:24:24.072Z,98661.19
2023-06-09T03:26:53.818Z,98659.56
2023-06-09T03:29:23.159Z,98660.06
2023-06-09T03:31:51.872Z,98663.25
2023-06-09T03:34:21.680Z,98669.94
2023-06-09T03:36:51.753Z,98668.81
2023-06-09T03:39:20.394Z,98665.66
2023-06-09T03:41:49.017Z,98668.22
2023-06-09T03:44:17.626Z,98661.34
2023-06-09T03:46:46.450Z,98670.34
2023-06-09T03:49:15.088Z,98662.44
2023-06-09T03:51:43.824Z,98669.06
2023-06-09T03:54:14.044Z,98667.38
2023-06-09T03:56:44.044Z,98665.16
2023-06-09T03:59:12.830Z,98662.34
2023-06-09T04:01:41.896Z,98667.66
2023-06-09T04:04:10.689Z,98672.63
2023-06-09T04:06:39.725Z,98665.91
2023-06-09T04:09:08.676Z,98665.16
2023-06-09T04:11:38.726Z,98660.38
2023-06-09T04:14:07.879Z,98667.22
2023-06-09T04:16:37.239Z,98662.44
2023-06-09T04:19:06.211Z,98666.94
2023-06-09T04:21:35.327Z,98670.41
2023-06-09T04:24:04.287Z,98670.97
2023-06-09T04:26:33.800Z,98664.66
2023-06-09T04:29:03.890Z,98663.06
2023-06-09T04:31:34.895Z,98657.38
2023-06-09T04:34:11.614Z,98668.75
2023-06-09T04:36:41.027Z,98660.63
2023-06-09T04:39:10.235Z,98667.47
2023-06-09T04:41:39.134Z,98657.00
2023-06-09T04:44:09.677Z,98668.88
2023-06-09T04:46:39.684Z,98669.78
2023-06-09T04:49:10.320Z,98663.06
2023-06-09T04:51:43.031Z,98669.91
2023-06-09T04:54:12.679Z,98674.69
2023-06-09T04:56:44.238Z,98671.31
2023-06-09T04:59:15.070Z,98681.63
2023-06-09T05:01:47.808Z,98679.13
2023-06-09T05:04:16.660Z,98679.94
2023-06-09T05:06:45.423Z,98679.72
2023-06-09T05:09:14.118Z,98682.94
2023-06-09T05:11:43.033Z,98682.19
2023-06-09T05:14:11.811Z,98683.78
2023-06-09T05:16:43.973Z,98684.66
2023-06-09T05:19:12.908Z,98678.34
2023-06-09T05:21:41.830Z,98677.13
2023-06-09T05:24:10.594Z,98680.84
2023-06-09T05:26:39.340Z,98685.28
2023-06-09T05:29:08.034Z,98691.13
2023-06-09T05:31:36.779Z,98688.56
2023-06-09T05:34:06.942Z,98679.94
2023-06-09T05:36:37.568Z,98686.81
2023-06-09T05:39:07.689Z,98686.63
2023-06-09T05:41:37.913Z,98679.03
2023-06-09T05:44:06.712Z,98685.66
2023-06-09T05:46:38.980Z,98684.94
2023-06-09T05:49:09.027Z,98683.94
2023-06-09T05:51:38.165Z,98690.06
2023-06-09T05:54:07.363Z,98682.97
2023-06-09T05:56:39.980Z,98689.41
2023-06-09T05:59:09.512Z,98686.84
2023-06-09T06:01:38.312Z,98688.19
2023-06-09T06:04:07.060Z,98687.91
2023-06-09T06:06:40.143Z,98688.69
2023-06-09T06:09:10.171Z,98693.91
2023-06-09T06:11:39.152Z,98691.13
2023-06-09T06:14:07.918Z,98690.72
2023-06-09T06:16:38.135Z,98685.59
2023-06-09T06:19:06.842Z,98687.56
2023-06-09T06:21:38.319Z,98689.38
2023-06-09T06:24:07.324Z,98682.28
2023-06-09T06:26:36.436Z,98679.50
2023-06-09T06:29:05.280Z,98677.69
2023-06-09T06:31:34.064Z,98681.34
2023-06-09T06:34:05.817Z,98684.66
2023-06-09T06:36:37.570Z,98692.06
2023-06-09T06:39:07.003Z,98685.44
2023-06-09T06:41:35.782Z,98683.94
2023-06-09T06:44:04.658Z,98679.38
2023-06-09T06:46:33.439Z,98672.72
2023-06-09T06:49:02.595Z,98676.28
2023-06-09T06:51:31.464Z,98675.28
2023-06-09T06:54:02.618Z,98674.97
2023-06-09T06:56:31.952Z,98671.59
2023-06-09T06:59:00.908Z,98674.78
2023-06-09T07:01:30.815Z,98670.25
2023-06-09T07:03:59.706Z,98686.50
2023-06-09T07:06:28.973Z,98678.63
2023-06-09T07:08:57.815Z,98675.28
2023-06-09T07:11:29.261Z,98690.16
2023-06-09T07:13:58.328Z,98689.50
2023-06-09T07:16:27.252Z,98690.34
2023-06-09T07:18:56.036Z,98687.88
2023-06-09T07:21:24.889Z,98685.88
2023-06-09T07:23:53.631Z,98681.88
2023-06-09T07:26:22.517Z,98679.22
2023-06-09T07:28:52.630Z,98686.69
2023-06-09T07:31:21.627Z,98686.88
2023-06-09T07:33:50.412Z,98692.69
2023-06-09T07:36:20.583Z,98692.75
2023-06-09T07:38:49.379Z,98690.66
2023-06-09T07:41:18.290Z,98677.47
2023-06-09T07:43:47.300Z,98678.13
2023-06-09T07:46:17.519Z,98683.31
2023-06-09T07:48:46.362Z,98681.84
2023-06-09T07:51:15.319Z,98673.69
2023-06-09T07:53:44.037Z,98679.13
2023-06-09T07:56:12.727Z,98671.50
2023-06-09T07:58:42.179Z,98679.69
2023-06-09T08:01:10.979Z,98667.72
2023-06-09T08:03:41.432Z,98668.91
2023-06-09T08:06:10.973Z,98662.25
2023-06-09T08:08:39.812Z,98662.78
2023-06-09T08:11:08.530Z,98661.72
2023-06-09T08:13:37.321Z,98663.41
2023-06-09T08:16:06.940Z,98658.19
2023-06-09T08:18:35.892Z,98666.28
2023-06-09T08:21:06.206Z,98670.88
2023-06-09T08:23:34.962Z,98648.19
2023-06-09T08:26:03.801Z,98657.72
2023-06-09T08:28:32.905Z,98650.75
2023-06-09T08:31:01.681Z,98649.50
2023-06-09T08:33:30.509Z,98662.25
2023-06-09T08:35:59.331Z,98639.38
2023-06-09T08:38:29.479Z,98638.00
2023-06-09T08:40:59.590Z,98635.63
2023-06-09T08:43:28.762Z,98635.44
2023-06-09T08:45:58.235Z,98630.94
2023-06-09T08:48:28.525Z,98628.94
2023-06-09T08:50:57.576Z,98627.47
2023-06-09T08:53:27.024Z,98637.00
2023-06-09T08:55:57.550Z,98626.91
2023-06-09T08:58:27.027Z,98619.44
2023-06-09T09:00:56.663Z,98624.00
2023-06-09T09:03:25.556Z,98626.31
2023-06-09T09:05:54.389Z,98625.03
2023-06-09T09:08:23.355Z,98630.50
2023-06-09T09:10:52.129Z,98631.63
2023-06-09T09:13:26.098Z,98626.78
2023-06-09T09:15:55.229Z,98618.81
2023-06-09T09:18:24.734Z,98626.75
2023-06-09T09:20:53.709Z,98619.06
2023-06-09T09:23:30.698Z,98621.81
2023-06-09T09:26:00.289Z,98621.91
2023-06-09T09:28:39.952Z,98626.25
2023-06-09T09:31:09.687Z,98628.38
2023-06-09T09:33:39.061Z,98618.59
2023-06-09T09:36:11.701Z,98618.03
2023-06-09T09:38:45.062Z,98623.44
2023-06-09T09:41:16.159Z,98611.44
2023-06-09T09:43:47.716Z,98608.25
2023-06-09T09:46:21.847Z,98606.63
2023-06-09T09:48:50.600Z,98609.31
2023-06-09T09:51:21.981Z,98609.72
2023-06-09T09:53:52.569Z,98602.00
2023-06-09T09:56:23.699Z,98597.94
2023-06-09T09:58:56.017Z,98600.31
2023-06-09T10:01:26.403Z,98589.94
2023-06-09T10:03:56.056Z,98589.19
2023-06-09T10:06:28.885Z,98593.69
2023-06-09T10:08:59.417Z,98594.47
2023-06-09T10:11:32.106Z,98588.94
2023-06-09T10:14:02.981Z,98586.22
2023-06-09T10:16:32.746Z,98600.63
2023-06-09T10:19:02.722Z,98586.69
2023-06-09T10:21:32.750Z,98588.50
2023-06-09T10:24:02.193Z,98584.19
2023-06-09T10:26:31.062Z,98590.56
2023-06-09T10:28:59.925Z,98600.59
2023-06-09T10:31:32.438Z,98598.72
2023-06-09T10:34:01.369Z,98588.13
2023-06-09T10:36:41.139Z,98584.63
2023-06-09T10:39:18.643Z,98587.94
2023-06-09T10:41:51.853Z,98599.06
2023-06-09T10:44:28.574Z,98593.28
2023-06-09T10:46:59.724Z,98595.31
2023-06-09T10:49:40.569Z,98599.19
2023-06-09T10:52:11.719Z,98589.22
2023-06-09T10:54:40.838Z,98591.56
2023-06-09T10:57:36.894Z,98582.06
2023-06-09T11:00:17.086Z,98578.91
2023-06-09T11:02:49.907Z,98574.50
2023-06-09T11:05:20.624Z,98570.31
2023-06-09T11:07:51.902Z,98570.16
2023-06-09T11:10:29.707Z,98570.66
2023-06-09T11:12:58.771Z,98561.94
2023-06-09T11:15:58.485Z,98565.63
2023-06-09T11:18:29.786Z,98562.28
2023-06-09T11:21:19.897Z,98565.91
2023-06-09T11:23:59.354Z,98557.31
2023-06-09T11:26:28.614Z,98554.38
2023-06-09T11:28:57.491Z,98557.25
2023-06-09T11:31:27.865Z,98556.19
2023-06-09T11:33:59.017Z,98550.22
2023-06-09T11:36:31.166Z,98545.59
2023-06-09T11:39:07.454Z,98546.63
2023-06-09T11:41:36.261Z,98548.47
2023-06-09T11:44:05.464Z,98548.34
2023-06-09T11:46:36.193Z,98547.94
2023-06-09T11:49:10.975Z,98534.53
2023-06-09T11:52:00.701Z,98545.78
2023-06-09T11:54:46.791Z,98538.09
2023-06-09T11:57:17.026Z,98537.47
2023-06-09T11:59:46.947Z,98530.09
2023-06-09T12:02:18.546Z,98528.38
2023-06-09T12:04:50.377Z,98533.44
2023-06-09T12:07:20.036Z,98533.06
2023-06-09T12:09:57.130Z,98525.00
2023-06-09T12:12:26.518Z,98519.47
2023-06-09T12:14:55.553Z,98523.63
2023-06-09T12:17:25.112Z,98519.06
2023-06-09T12:19:57.568Z,98519.34
2023-06-09T12:22:26.442Z,98511.44
2023-06-09T12:24:55.287Z,98515.13
2023-06-09T12:27:25.317Z,98508.59
2023-06-09T12:29:54.192Z,98510.09
2023-06-09T12:32:24.172Z,98488.91
2023-06-09T12:35:02.761Z,98499.03
2023-06-09T12:37:38.588Z,98512.31
2023-06-09T12:40:11.441Z,98505.13
2023-06-09T12:42:48.899Z,98499.66
2023-06-09T12:45:17.787Z,98506.53
2023-06-09T12:47:50.416Z,98504.66
2023-06-09T12:50:20.788Z,98502.94
2023-06-09T12:52:49.597Z,98493.69
2023-06-09T12:55:18.909Z,98494.66
2023-06-09T12:57:47.674Z,98487.09
2023-06-09T13:00:22.489Z,98495.41
2023-06-09T13:02:52.787Z,98495.09
2023-06-09T13:05:24.619Z,98485.44
2023-06-09T13:07:53.562Z,98491.50
2023-06-09T13:10:22.330Z,98488.00
2023-06-09T13:12:52.178Z,98491.28
2023-06-09T13:15:21.837Z,98493.28
2023-06-09T13:17:50.983Z,98496.19
2023-06-09T13:20:20.202Z,98494.28
2023-06-09T13:22:50.425Z,98488.69
2023-06-09T13:25:19.360Z,98485.88
2023-06-09T13:27:48.150Z,98493.50
2023-06-09T13:30:17.078Z,98482.53
2023-06-09T13:32:45.993Z,98486.53
2023-06-09T13:35:15.365Z,98483.38
2023-06-09T13:37:44.394Z,98471.91
2023-06-09T13:40:14.639Z,98471.38
2023-06-09T13:42:44.622Z,98474.78
2023-06-09T13:45:14.237Z,98475.75
2023-06-09T13:47:45.485Z,98467.50
2023-06-09T13:50:14.451Z,98462.66
2023-06-09T13:52:43.945Z,98461.88
2023-06-09T13:55:14.155Z,98468.03
2023-06-09T13:57:44.041Z,98473.28
2023-06-09T14:00:14.905Z,98468.22
2023-06-09T14:02:44.303Z,98468.34
2023-06-09T14:05:14.875Z,98463.53
2023-06-09T14:07:46.579Z,98458.59
2023-06-09T14:10:18.585Z,98454.66
2023-06-09T14:12:49.450Z,98457.41
2023-06-09T14:15:28.800Z,98450.03
2023-06-09T14:17:59.698Z,98441.84
2023-06-09T14:20:29.072Z,98437.97
2023-06-09T14:22:59.933Z,98441.97
2023-06-09T14:25:30.589Z,98436.19
2023-06-09T14:27:59.360Z,98433.78
2023-06-09T14:30:28.859Z,98434.00
2023-06-09T14:32:58.064Z,98439.16
2023-06-09T14:35:29.509Z,98426.72
2023-06-09T14:37:59.760Z,98425.81
2023-06-09T14:40:36.386Z,98423.47
2023-06-09T14:43:07.920Z,98426.81
2023-06-09T14:45:36.689Z,98417.75
2023-06-09T14:48:10.004Z,98415.13
2023-06-09T14:50:40.601Z,98416.84
2023-06-09T14:53:11.474Z,98409.50
2023-06-09T14:55:43.260Z,98410.47
2023-06-09T14:58:13.102Z,98414.13
2023-06-09T15:00:43.043Z,98411.13
2023-06-09T15:03:13.892Z,98408.31
2023-06-09T15:05:43.608Z,98410.47
2023-06-09T15:08:12.778Z,98401.84
2023-06-09T15:10:44.621Z,98413.28
2023-06-09T15:13:14.754Z,98407.69
2023-06-09T15:15:46.185Z,98409.00
2023-06-09T15:18:15.896Z,98405.00
2023-06-09T15:20:45.151Z,98405.69
2023-06-09T15:23:14.408Z,98399.06
2023-06-09T15:25:45.610Z,98403.34
2023-06-09T15:28:15.804Z,98405.78
2023-06-09T15:30:45.984Z,98393.59
2023-06-09T15:33:15.919Z,98400.97
2023-06-09T15:35:46.162Z,98397.09
2023-06-09T15:38:16.397Z,98405.56
2023-06-09T15:40:49.221Z,98397.53
2023-06-09T15:43:18.783Z,98391.25
2023-06-09T15:45:48.997Z,98404.69
2023-06-09T15:48:17.855Z,98395.41
2023-06-09T15:50:47.689Z,98382.88
2023-06-09T15:53:20.518Z,98388.47
2023-06-09T15:55:52.285Z,98384.31
2023-06-09T15:58:21.749Z,98380.88
2023-06-09T16:00:51.024Z,98380.53
2023-06-09T16:03:20.589Z,98383.44
2023-06-09T16:05:50.079Z,98390.59
2023-06-09T16:08:19.847Z,98383.22
2023-06-09T16:10:51.403Z,98394.28
2023-06-09T16:13:20.846Z,98389.69
2023-06-09T16:15:49.665Z,98382.25
2023-06-09T16:18:19.931Z,98382.31
2023-06-09T16:20:48.678Z,98371.94
2023-06-09T16:23:17.653Z,98376.06
2023-06-09T16:25:46.448Z,98373.16
2023-06-09T16:28:16.543Z,98383.78
2023-06-09T16:30:46.142Z,98381.34
2023-06-09T16:33:14.961Z,98373.94
2023-06-09T16:35:43.843Z,98384.38
2023-06-09T16:38:12.633Z,98376.88
2023-06-09T16:40:41.384Z,98388.38
2023-06-09T16:43:10.185Z,98383.34
2023-06-09T16:45:40.418Z,98383.19
2023-06-09T16:48:09.179Z,98387.78
2023-06-09T16:50:38.755Z,98381.97
2023-06-09T16:53:07.637Z,98390.13
2023-06-09T16:55:36.435Z,98386.09
2023-06-09T16:58:08.753Z,98381.38
2023-06-09T17:00:37.536Z,98388.31
2023-06-09T17:03:08.185Z,98392.06
2023-06-09T17:05:37.019Z,98388.56
2023-06-09T17:08:06.314Z,98377.38
2023-06-09T17:10:35.003Z,98381.19
2023-06-09T17:13:05.185Z,98381.63
2023-06-09T17:15:33.944Z,98386.41
2023-06-09T17:18:02.759Z,98388.28
2023-06-09T17:20:33.812Z,98387.59
2023-06-09T17:23:02.634Z,98389.09
2023-06-09T17:25:31.957Z,98393.44
2023-06-09T17:28:00.655Z,98399.25
2023-06-09T17:30:29.438Z,98395.03
2023-06-09T17:32:58.096Z,98393.47
2023-06-09T17:35:26.947Z,98395.50
2023-06-09T17:37:56.897Z,98397.94
2023-06-09T17:40:25.623Z,98398.03
2023-06-09T17:42:54.373Z,98396.56
2023-06-09T17:45:23.113Z,98398.56
2023-06-09T17:47:51.952Z,98402.78
2023-06-09T17:50:20.739Z,98406.47
2023-06-09T17:52:49.580Z,98412.63
2023-06-09T17:55:19.990Z,98407.50
2023-06-09T17:57:48.772Z,98425.03
2023-06-09T18:00:18.518Z,98421.72
2023-06-09T18:02:47.796Z,98414.97
2023-06-09T18:05:16.704Z,98421.66
2023-06-09T18:07:46.558Z,98420.34
2023-06-09T18:10:15.313Z,98431.22
2023-06-09T18:12:45.580Z,98422.38
2023-06-09T18:15:14.387Z,98432.50
2023-06-09T18:17:43.218Z,98435.31
2023-06-09T18:20:12.493Z,98441.66
2023-06-09T18:22:41.482Z,98435.38
2023-06-09T18:25:11.082Z,98438.00
2023-06-09T18:27:40.040Z,98444.19
2023-06-09T18:30:11.698Z,98451.44
2023-06-09T18:32:40.451Z,98448.63
2023-06-09T18:35:10.084Z,98442.16
2023-06-09T18:37:39.205Z,98444.38
2023-06-09T18:40:09.482Z,98449.91
2023-06-09T18:42:40.414Z,98448.19
2023-06-09T18:45:12.091Z,98451.03
2023-06-09T18:47:40.964Z,98451.22
2023-06-09T18:50:10.658Z,98453.78
2023-06-09T18:52:39.384Z,98458.53
2023-06-09T18:55:10.399Z,98456.66
2023-06-09T18:57:40.352Z,98458.56
2023-06-09T19:00:12.535Z,98461.28
2023-06-09T19:02:41.329Z,98453.09
2023-06-09T19:05:11.318Z,98463.81
2023-06-09T19:07:40.457Z,98468.09
2023-06-09T19:10:10.031Z,98459.44
2023-06-09T19:12:39.232Z,98465.13
2023-06-09T19:15:08.862Z,98464.50
2023-06-09T19:17:40.335Z,98460.59
2023-06-09T19:20:10.027Z,98474.13
2023-06-09T19:22:38.739Z,98466.69
2023-06-09T19:25:09.139Z,98462.97
2023-06-09T19:27:38.146Z,98466.09
2023-06-09T19:30:08.467Z,98469.75
2023-06-09T19:32:37.436Z,98473.97
2023-06-09T19:35:08.873Z,98487.84
2023-06-09T19:37:37.801Z,98484.84
2023-06-09T19:40:08.181Z,98493.47
2023-06-09T19:42:36.946Z,98493.81
2023-06-09T19:45:06.921Z,98500.09
2023-06-09T19:47:36.499Z,98503.72
2023-06-09T19:50:07.984Z,98504.94
2023-06-09T19:52:36.864Z,98510.59
2023-06-09T19:55:06.609Z,98512.59
2023-06-09T19:57:36.018Z,98508.97
2023-06-09T20:00:06.794Z,98521.41
2023-06-09T20:02:35.922Z,98524.69
2023-06-09T20:05:05.171Z,98526.13
2023-06-09T20:07:35.279Z,98528.91
2023-06-09T20:10:04.019Z,98528.28
2023-06-09T20:12:32.776Z,98528.09
2023-06-09T20:15:01.585Z,98534.38
2023-06-09T20:17:30.321Z,98533.41
2023-06-09T20:19:59.062Z,98536.72
2023-06-09T20:22:27.922Z,98531.38
2023-06-09T20:24:57.986Z,98537.94
2023-06-09T20:27:26.803Z,98530.38
2023-06-09T20:29:55.566Z,98543.06
2023-06-09T20:32:24.863Z,98534.91
2023-06-09T20:34:53.921Z,98540.97
2023-06-09T20:37:22.944Z,98544.38
2023-06-09T20:39:52.206Z,98547.59
2023-06-09T20:42:22.324Z,98545.78
2023-06-09T20:44:51.553Z,98551.72
2023-06-09T20:47:20.634Z,98549.63
2023-06-09T20:49:49.342Z,98552.00
2023-06-09T20:52:18.169Z,98555.25
2023-06-09T20:54:46.956Z,98558.59
2023-06-09T20:57:15.772Z,98557.31
2023-06-09T20:59:46.092Z,98552.00
2023-06-09T21:02:14.847Z,98562.47
2023-06-09T21:04:44.919Z,98558.63
2023-06-09T21:07:13.837Z,98560.13
2023-06-09T21:09:42.703Z,98565.56
2023-06-09T21:12:12.473Z,98562.44
2023-06-09T21:14:41.248Z,98563.22
2023-06-09T21:17:11.447Z,98565.19
2023-06-09T21:19:42.953Z,98570.34
2023-06-09T21:22:11.832Z,98569.16
2023-06-09T21:24:40.614Z,98569.66
2023-06-09T21:27:09.356Z,98564.22
2023-06-09T21:29:38.490Z,98570.41
2023-06-09T21:32:08.077Z,98559.56
2023-06-09T21:34:38.261Z,98566.38
2023-06-09T21:37:07.060Z,98569.13
2023-06-09T21:39:35.873Z,98574.63
2023-06-09T21:42:05.203Z,98585.84
2023-06-09T21:44:33.922Z,98577.75
2023-06-09T21:47:02.791Z,98585.84
2023-06-09T21:49:31.637Z,98581.31
2023-06-09T21:52:01.757Z,98581.50
2023-06-09T21:54:30.532Z,98578.34
2023-06-09T21:56:59.280Z,98580.88
2023-06-09T21:59:28.001Z,98582.75
2023-06-09T22:01:57.214Z,98587.34
2023-06-09T22:04:26.000Z,98581.63
2023-06-09T22:06:54.825Z,98583.69
2023-06-09T22:09:24.900Z,98589.09
2023-06-09T22:11:53.612Z,98583.78
2023-06-09T22:14:22.401Z,98584.94
2023-06-09T22:16:53.457Z,98590.84
2023-06-09T22:19:23.091Z,98579.81
2023-06-09T22:21:51.841Z,98584.06
2023-06-09T22:24:20.726Z,98584.38
2023-06-09T22:27:00.119Z,98583.78
2023-06-09T22:29:29.702Z,98588.09
2023-06-09T22:31:58.637Z,98588.03
2023-06-09T22:34:27.394Z,98592.91
2023-06-09T22:36:56.135Z,98581.28
2023-06-09T22:39:25.086Z,98581.78
2023-06-09T22:41:55.108Z,98584.72
2023-06-09T22:44:23.787Z,98585.06
2023-06-09T22:46:53.279Z,98586.81
2023-06-09T22:49:22.925Z,98591.38
2023-06-09T22:51:51.726Z,98584.84
2023-06-09T22:54:20.528Z,98594.81
2023-06-09T22:56:49.300Z,98592.75
2023-06-09T22:59:19.405Z,98595.41
2023-06-09T23:01:48.262Z,98587.94
2023-06-09T23:04:18.604Z,98591.25
2023-06-09T23:06:47.568Z,98582.19
2023-06-09T23:09:16.304Z,98587.91
2023-06-09T23:11:45.019Z,98585.03
2023-06-09T23:14:13.773Z,98590.91
2023-06-09T23:16:43.947Z,98588.06
2023-06-09T23:19:17.030Z,98587.84
2023-06-09T23:21:51.465Z,98582.53
2023-06-09T23:24:26.454Z,98582.75
2023-06-09T23:26:55.373Z,98581.97
2023-06-09T23:29:24.169Z,98576.72
2023-06-09T23:31:54.267Z,98576.78
2023-06-09T23:34:23.997Z,98583.19
2023-06-09T23:36:53.327Z,98579.47
2023-06-09T23:39:22.051Z,98577.69
2023-06-09T23:41:50.819Z,98577.00
2023-06-09T23:44:19.483Z,98578.13
2023-06-09T23:46:48.206Z,98572.81
2023-06-09T23:49:18.425Z,98575.28
2023-06-09T23:51:47.090Z,98577.78
2023-06-09T23:54:15.842Z,98573.22
2023-06-09T23:56:45.393Z,98570.81
2023-06-09T23:59:14.179Z,98578.25
